Time;durP1;ratioP1;P1;durP2;ratioP2;P2;SDS_P1;SDS_P2;PMS_P1;PMS_P2;Temp;Humidity;BMP_temperature;BMP_pressure;BME280_temperature;BME280_humidity;BME280_pressure;Samples;Min_cycle;Max_cycle;Signal;HPM_P1;HPM_P2
2021/06/03 00:00:26;;;;;;;17.48;15.57;;;;;;;14.37;90.97;100576.22;6012535;23;20034;-84
2021/06/03 00:02:53;;;;;;;17.05;14.60;;;;;;;14.32;91.37;100581.41;6013164;23;20009;-83
2021/06/03 00:05:25;;;;;;;16.77;14.68;;;;;;;14.29;91.44;100576.41;6036895;23;20045;-84
2021/06/03 00:07:51;;;;;;;18.57;16.07;;;;;;;14.28;91.63;100564.75;6012718;23;20057;-83
2021/06/03 00:10:22;;;;;;;19.38;15.82;;;;;;;14.34;91.23;100576.59;6012518;23;20074;-85
2021/06/03 00:12:47;;;;;;;16.88;14.73;;;;;;;14.23;91.59;100563.69;6036204;23;20007;-84
2021/06/03 00:15:14;;;;;;;21.02;16.33;;;;;;;14.12;91.49;100562.41;6012677;23;20007;-85
2021/06/03 00:17:40;;;;;;;18.48;15.80;;;;;;;14.26;91.62;100588.47;6012347;23;20218;-83
2021/06/03 00:20:11;;;;;;;18.63;16.25;;;;;;;14.34;91.97;100592.00;6036906;23;20007;-83
2021/06/03 00:22:37;;;;;;;20.50;17.13;;;;;;;14.16;91.44;100552.06;6012655;23;20010;-83
2021/06/03 00:25:04;;;;;;;18.13;15.18;;;;;;;14.39;91.54;100578.72;6036773;23;20045;-83
2021/06/03 00:27:29;;;;;;;20.45;16.23;;;;;;;14.32;91.28;100559.78;6038829;23;20010;-84
2021/06/03 00:29:55;;;;;;;20.15;15.10;;;;;;;14.29;91.66;100558.31;6014629;23;20039;-84
2021/06/03 00:32:20;;;;;;;17.98;14.60;;;;;;;14.30;91.53;100569.97;6017710;23;20033;-84
2021/06/03 00:34:46;;;;;;;18.50;15.65;;;;;;;14.27;91.68;100570.38;6041152;23;20074;-83
2021/06/03 00:37:11;;;;;;;15.93;14.23;;;;;;;14.21;91.66;100572.03;6042637;23;20010;-85
2021/06/03 00:39:37;;;;;;;20.67;16.13;;;;;;;14.16;91.95;100561.00;6039062;23;20078;-83
2021/06/03 00:42:02;;;;;;;18.05;16.10;;;;;;;14.21;91.71;100569.31;6014673;23;20114;-84
2021/06/03 00:44:28;;;;;;;20.13;15.45;;;;;;;14.26;91.95;100574.09;6018303;23;20389;-83
2021/06/03 00:46:53;;;;;;;20.30;14.50;;;;;;;14.17;91.92;100567.22;6040441;23;20365;-84
2021/06/03 00:49:19;;;;;;;18.10;15.23;;;;;;;14.16;91.99;100574.50;6041392;23;20006;-84
2021/06/03 00:51:44;;;;;;;18.88;14.88;;;;;;;14.14;92.22;100571.16;6042328;23;20429;-83
2021/06/03 00:54:09;;;;;;;16.90;14.80;;;;;;;13.97;92.36;100540.97;6022712;23;20015;-84
2021/06/03 00:56:37;;;;;;;18.00;15.43;;;;;;;14.16;92.32;100569.09;6042514;23;20050;-84
2021/06/03 00:59:04;;;;;;;19.70;16.25;;;;;;;14.01;92.14;100553.03;6042286;23;20010;-83
2021/06/03 01:01:30;;;;;;;24.15;18.10;;;;;;;14.27;92.31;100582.03;6040532;23;20019;-84
2021/06/03 01:03:56;;;;;;;23.05;17.23;;;;;;;14.27;92.19;100582.03;6020291;23;20022;-84
2021/06/03 01:06:21;;;;;;;20.98;16.73;;;;;;;14.30;92.11;100588.88;6018168;23;20003;-83
2021/06/03 01:08:55;;;;;;;23.17;17.52;;;;;;;14.20;92.30;100564.09;6017782;23;20616;-84
2021/06/03 01:11:23;;;;;;;;;;;;;;;14.32;92.44;100588.69;6066914;23;20003;-84
2021/06/03 01:14:20;;;;;;;19.42;15.93;;;;;;;14.27;92.43;100573.06;6064981;23;19942;-84
2021/06/03 01:16:47;;;;;;;18.70;16.45;;;;;;;14.35;92.32;100582.88;6017846;23;20059;-83
2021/06/03 01:19:16;;;;;;;24.52;18.20;;;;;;;14.34;92.33;100576.59;6018194;23;20013;-83
2021/06/03 01:21:47;;;;;;;21.02;17.50;;;;;;;14.40;92.15;100583.94;6042125;23;20089;-84
2021/06/03 01:24:19;;;;;;;23.27;18.27;;;;;;;14.36;92.20;100576.41;6066426;23;20443;-84
2021/06/03 01:26:45;;;;;;;20.55;18.02;;;;;;;14.33;91.99;100579.53;6041161;23;20010;-83
2021/06/03 01:29:13;;;;;;;24.27;19.38;;;;;;;14.34;92.21;100575.78;6039223;23;20017;-83
2021/06/03 01:31:39;;;;;;;21.50;17.63;;;;;;;14.34;92.06;100579.31;6018075;23;20003;-84
2021/06/03 01:34:04;;;;;;;22.77;19.00;;;;;;;14.21;92.07;100572.03;6018949;23;20124;-83
2021/06/03 01:36:30;;;;;;;22.20;18.67;;;;;;;14.27;92.10;100581.19;6041718;23;20400;-83
2021/06/03 01:38:55;;;;;;;23.27;18.60;;;;;;;14.20;92.01;100581.16;6018429;23;20074;-84
2021/06/03 01:41:21;;;;;;;20.45;17.77;;;;;;;14.21;92.02;100587.41;6015100;23;20062;-83
2021/06/03 01:43:47;;;;;;;25.35;19.40;;;;;;;14.09;92.08;100589.88;6018389;23;20027;-83
2021/06/03 01:46:13;;;;;;;23.33;18.75;;;;;;;14.16;92.17;100600.72;6016576;23;20003;-83
2021/06/03 01:48:40;;;;;;;26.52;19.08;;;;;;;14.14;91.97;100597.38;6017071;23;20034;-83
2021/06/03 01:51:10;;;;;;;29.30;20.55;;;;;;;14.08;91.83;100599.84;6043074;23;20006;-83
2021/06/03 01:53:36;;;;;;;21.63;16.90;;;;;;;14.05;91.43;100594.88;6040249;23;20006;-83
2021/06/03 01:56:07;;;;;;;20.27;16.48;;;;;;;14.03;91.40;100605.03;6015151;23;20015;-84
2021/06/03 01:58:32;;;;;;;22.73;17.70;;;;;;;13.93;90.97;100591.06;6014468;23;20014;-84
2021/06/03 02:00:59;;;;;;;21.63;17.25;;;;;;;13.79;90.91;100563.16;6017897;23;20002;-83
2021/06/03 02:03:25;;;;;;;21.02;15.45;;;;;;;13.96;91.16;100589.81;6019089;23;20082;-84
2021/06/03 02:05:51;;;;;;;18.10;13.77;;;;;;;13.90;90.94;100580.66;6042216;23;20018;-84
2021/06/03 02:08:17;;;;;;;17.88;13.93;;;;;;;13.93;90.64;100590.22;6016137;23;20007;-83
2021/06/03 02:10:42;;;;;;;17.08;12.60;;;;;;;13.85;90.40;100585.84;6014881;23;20553;-84
2021/06/03 02:13:26;;;;;;;15.95;12.18;;;;;;;13.84;90.28;100586.88;6015407;23;20353;-84
2021/06/03 02:15:57;;;;;;;12.75;10.48;;;;;;;13.80;90.32;100593.72;6070648;23;20010;-83
2021/06/03 02:18:31;;;;;;;17.73;11.80;;;;;;;13.74;90.16;100597.22;6040009;23;20729;-84
2021/06/03 02:20:57;;;;;;;16.67;11.10;;;;;;;13.70;90.09;100599.47;6018759;23;20014;-85
2021/06/03 02:23:24;;;;;;;13.63;10.98;;;;;;;13.61;89.77;100579.91;6016037;23;20003;-83
2021/06/03 02:25:50;;;;;;;15.90;10.57;;;;;;;13.67;90.06;100597.19;6038559;23;19999;-83
2021/06/03 02:28:15;;;;;;;16.70;10.85;;;;;;;13.64;89.66;100601.09;6012952;23;20021;-83
2021/06/03 02:30:41;;;;;;;13.43;10.45;;;;;;;13.63;90.01;100604.03;6018232;23;20003;-83
2021/06/03 02:33:06;;;;;;;17.10;12.02;;;;;;;13.44;89.94;100572.31;6039876;23;20077;-83
2021/06/03 02:35:32;;;;;;;20.55;12.68;;;;;;;13.55;90.00;100601.50;6041514;23;20006;-83
2021/06/03 02:37:58;;;;;;;17.42;12.50;;;;;;;13.53;89.99;100596.28;6039708;23;20034;-85
2021/06/03 02:40:30;;;;;;;17.58;11.13;;;;;;;13.54;89.89;100600.63;6015332;23;20003;-84
2021/06/03 02:42:57;;;;;;;17.55;11.02;;;;;;;13.51;90.18;100592.09;6014446;23;20021;-83
2021/06/03 02:45:28;;;;;;;16.45;11.13;;;;;;;13.47;90.38;100591.69;6018526;23;20003;-83
2021/06/03 02:47:55;;;;;;;14.52;10.05;;;;;;;13.47;90.19;100601.63;6041207;23;20003;-82
2021/06/03 02:50:22;;;;;;;14.00;10.20;;;;;;;13.38;90.46;100592.84;6016555;23;20003;-83
2021/06/03 02:52:47;;;;;;;16.92;10.30;;;;;;;13.40;90.44;100601.59;6017276;23;20477;-83
2021/06/03 02:55:15;;;;;;;16.13;11.18;;;;;;;13.37;90.40;100596.59;6037887;23;20002;-81
2021/06/03 02:57:41;;;;;;;15.98;11.40;;;;;;;13.36;90.55;100600.31;6012070;23;20622;-85
2021/06/03 03:00:13;;;;;;;15.73;11.25;;;;;;;13.30;90.49;100596.53;6016168;23;20615;-85
2021/06/03 03:02:38;;;;;;;17.27;10.95;;;;;;;13.35;90.67;100602.19;6038781;23;20018;-82
2021/06/03 03:05:05;;;;;;;17.30;10.95;;;;;;;13.36;90.58;100595.78;6015814;23;20051;-83
2021/06/03 03:07:32;;;;;;;16.63;11.13;;;;;;;13.34;90.41;100594.31;6015427;23;20524;-84
2021/06/03 03:09:58;;;;;;;17.90;11.05;;;;;;;13.37;90.33;100594.72;6014073;23;20009;-81
2021/06/03 03:12:23;;;;;;;17.80;11.75;;;;;;;13.37;90.29;100593.91;6015324;23;20011;-83
2021/06/03 03:14:49;;;;;;;14.90;9.88;;;;;;;13.39;90.59;100600.78;6015182;23;20099;-86
2021/06/03 03:17:14;;;;;;;14.48;9.23;;;;;;;13.39;90.01;100597.25;6016724;23;20003;-85
2021/06/03 03:19:40;;;;;;;13.95;9.70;;;;;;;13.40;89.52;100599.72;6015588;23;19999;-83
2021/06/03 03:22:05;;;;;;;11.18;7.25;;;;;;;13.44;89.33;100592.06;6040112;23;20010;-83
2021/06/03 03:24:31;;;;;;;9.82;7.00;;;;;;;13.46;89.20;100597.28;6038886;23;20447;-82
2021/06/03 03:26:56;;;;;;;10.77;7.40;;;;;;;13.37;89.09;100580.41;6038097;23;19999;-84
2021/06/03 03:29:22;;;;;;;10.50;7.75;;;;;;;13.45;88.90;100593.75;6014479;23;20127;-84
2021/06/03 03:31:47;;;;;;;10.05;7.78;;;;;;;13.40;88.55;100580.81;6016891;23;20003;-84
2021/06/03 03:34:12;;;;;;;11.63;8.07;;;;;;;13.50;88.60;100596.69;6040099;23;20066;-82
2021/06/03 03:36:38;;;;;;;9.80;7.63;;;;;;;13.45;88.63;100587.50;6014464;23;20007;-82
2021/06/03 03:39:05;;;;;;;10.23;8.43;;;;;;;13.54;88.75;100595.22;6015482;23;20039;-85
2021/06/03 03:41:32;;;;;;;13.05;9.15;;;;;;;13.57;88.55;100607.50;6014362;23;20022;-84
2021/06/03 03:43:58;;;;;;;13.88;8.23;;;;;;;13.56;88.31;100595.03;6039172;23;20002;-82
2021/06/03 03:46:23;;;;;;;11.00;8.43;;;;;;;13.53;88.53;100592.75;6015698;23;20003;-84
2021/06/03 03:48:48;;;;;;;11.38;8.25;;;;;;;13.55;88.46;100594.22;6039165;23;20094;-85
2021/06/03 03:51:15;;;;;;;11.82;8.55;;;;;;;13.56;88.43;100595.88;6014256;23;20010;-84
2021/06/03 03:53:41;;;;;;;11.90;8.50;;;;;;;13.59;88.33;100611.69;6014730;23;20010;-85
2021/06/03 03:56:07;;;;;;;12.52;9.00;;;;;;;13.58;88.53;100615.44;6015497;23;20007;-86
2021/06/03 03:58:36;;;;;;;12.93;8.65;;;;;;;13.58;88.60;100615.44;6014980;23;20044;-83
2021/06/03 04:01:01;;;;;;;15.50;9.18;;;;;;;13.54;88.39;100608.75;6038259;23;20472;-83
2021/06/03 04:03:27;;;;;;;12.30;9.30;;;;;;;13.51;88.62;100608.31;6015032;23;20003;-84
2021/06/03 04:05:52;;;;;;;12.90;8.80;;;;;;;13.43;88.57;100601.19;6015407;23;20085;-84
2021/06/03 04:08:18;;;;;;;14.00;8.35;;;;;;;13.51;88.61;100616.41;6013724;23;20089;-82
2021/06/03 04:10:43;;;;;;;12.25;7.60;;;;;;;13.49;88.49;100613.91;6014386;23;20086;-83
2021/06/03 04:13:08;;;;;;;11.07;7.60;;;;;;;13.46;88.80;100610.78;6038862;23;20021;-86
2021/06/03 04:15:34;;;;;;;9.50;7.50;;;;;;;13.44;88.79;100610.13;6015608;23;20007;-84
2021/06/03 04:17:59;;;;;;;11.30;8.43;;;;;;;13.44;88.86;100608.25;6014596;23;20062;-83
2021/06/03 04:20:25;;;;;;;11.05;7.47;;;;;;;13.49;88.64;100623.88;6015336;23;20464;-85
2021/06/03 04:22:51;;;;;;;8.57;6.07;;;;;;;13.48;88.35;100628.44;6019635;23;20043;-85
2021/06/03 04:25:17;;;;;;;7.88;5.63;;;;;;;13.33;87.29;100614.22;6041645;23;20059;-84
2021/06/03 04:27:42;;;;;;;10.40;6.10;;;;;;;13.33;86.82;100617.75;6014706;23;20018;-84
2021/06/03 04:30:10;;;;;;;7.78;5.32;;;;;;;13.33;86.48;100625.03;6038930;23;20005;-82
2021/06/03 04:32:36;;;;;;;7.10;4.78;;;;;;;13.18;85.78;100614.31;6017995;23;20006;-83
2021/06/03 04:35:03;;;;;;;6.78;4.82;;;;;;;13.04;85.36;100586.34;6040594;23;20018;-84
2021/06/03 04:37:29;;;;;;;6.43;5.22;;;;;;;13.17;85.28;100612.63;6017806;23;20015;-82
2021/06/03 04:39:54;;;;;;;6.07;4.72;;;;;;;13.19;84.75;100619.50;6038760;23;20091;-82
2021/06/03 04:42:20;;;;;;;5.90;4.15;;;;;;;13.16;84.50;100622.59;6018325;23;20003;-84
2021/06/03 04:44:45;;;;;;;6.07;4.35;;;;;;;13.15;84.25;100620.06;6017118;23;20022;-85
2021/06/03 04:47:11;;;;;;;7.38;5.18;;;;;;;13.07;84.68;100612.97;6040391;23;20017;-85
2021/06/03 04:49:37;;;;;;;4.97;4.47;;;;;;;13.06;84.99;100622.09;6015639;23;20070;-85
2021/06/03 04:54:47;;;;;;;5.85;4.47;;;;;;;13.11;84.63;100630.44;6044520;23;20405;-84
2021/06/03 04:57:13;;;;;;;5.93;4.60;;;;;;;13.13;84.65;100627.56;6037708;23;20007;-84
2021/06/03 04:59:38;;;;;;;6.05;5.00;;;;;;;13.12;85.14;100621.28;6015252;23;20038;-84
2021/06/03 05:02:04;;;;;;;6.00;4.65;;;;;;;13.10;84.74;100620.69;6039665;23;20002;-86
2021/06/03 05:04:29;;;;;;;7.70;5.00;;;;;;;13.13;84.15;100628.38;6040293;23;20321;-84
2021/06/03 05:06:55;;;;;;;5.57;4.38;;;;;;;13.08;84.06;100628.13;6042691;23;20003;-86
2021/06/03 05:09:20;;;;;;;5.22;4.30;;;;;;;13.07;83.29;100623.78;6015523;23;20348;-83
2021/06/03 05:11:45;;;;;;;4.93;4.25;;;;;;;12.90;83.65;100606.19;6015675;23;20010;-85
2021/06/03 05:14:11;;;;;;;5.40;4.43;;;;;;;12.98;83.91;100635.72;6018540;23;20063;-85
2021/06/03 05:16:36;;;;;;;5.70;4.20;;;;;;;12.97;83.47;100634.06;6040471;23;20003;-85
2021/06/03 05:19:02;;;;;;;5.22;3.72;;;;;;;12.96;83.54;100637.78;6015926;23;20007;-84
2021/06/03 05:21:27;;;;;;;5.15;4.15;;;;;;;12.69;83.68;100607.03;6016594;23;20007;-82
2021/06/03 05:23:53;;;;;;;6.88;5.05;;;;;;;12.97;83.65;100645.69;6015196;23;20054;-82
2021/06/03 05:26:18;;;;;;;6.93;5.40;;;;;;;12.94;83.91;100634.47;6039968;23;20002;-84
2021/06/03 05:28:44;;;;;;;6.50;5.22;;;;;;;12.97;84.22;100634.06;6015427;23;20062;-83
2021/06/03 05:31:09;;;;;;;6.82;5.35;;;;;;;12.79;84.26;100599.44;6014617;23;20007;-86
2021/06/03 05:33:34;;;;;;;6.85;5.35;;;;;;;13.00;84.29;100635.53;6015937;23;20007;-84
2021/06/03 05:36:00;;;;;;;8.57;7.20;;;;;;;13.04;84.16;100634.94;6013830;23;20093;-83
2021/06/03 05:38:25;;;;;;;7.22;5.38;;;;;;;13.01;84.47;100631.81;6037367;23;20429;-84
2021/06/03 05:40:51;;;;;;;6.78;5.57;;;;;;;13.05;84.30;100646.59;6014618;23;20014;-83
2021/06/03 05:43:16;;;;;;;7.53;6.28;;;;;;;13.05;84.82;100643.91;6016153;23;20011;-82
2021/06/03 05:45:42;;;;;;;8.75;5.55;;;;;;;13.07;84.94;100644.50;6019033;23;20352;-85
2021/06/03 05:48:07;;;;;;;7.70;5.47;;;;;;;13.10;85.18;100652.25;6016673;23;20003;-82
2021/06/03 05:50:33;;;;;;;8.38;5.88;;;;;;;13.24;84.82;100661.28;6040344;23;20006;-84
2021/06/03 05:52:58;;;;;;;7.05;6.18;;;;;;;13.30;84.49;100652.41;6015935;23;20002;-83
2021/06/03 05:55:24;;;;;;;9.13;5.47;;;;;;;13.40;85.12;100666.41;6013853;23;20067;-82
2021/06/03 05:57:50;;;;;;;7.43;5.93;;;;;;;13.43;84.64;100671.41;6014958;23;20355;-85
2021/06/03 06:00:19;;;;;;;7.68;6.20;;;;;;;13.51;84.81;100671.25;6016590;23;20026;-84
2021/06/03 06:02:54;;;;;;;7.80;5.70;;;;;;;13.54;84.52;100668.16;6018430;23;20431;-85
2021/06/03 06:08:06;;;;;;;9.88;6.65;;;;;;;13.55;85.15;100669.03;6042465;23;20348;-83
2021/06/03 06:10:32;;;;;;;8.88;6.00;;;;;;;13.64;84.87;100678.63;6013968;23;19999;-84
2021/06/03 06:12:58;;;;;;;7.28;4.82;;;;;;;13.63;84.65;100671.56;6015193;23;20006;-84
2021/06/03 06:15:24;;;;;;;8.60;5.40;;;;;;;13.67;84.35;100669.28;6016736;23;20489;-83
2021/06/03 06:17:50;;;;;;;9.15;5.60;;;;;;;13.70;84.35;100672.44;6039639;23;20010;-85
2021/06/03 06:20:15;;;;;;;9.57;6.38;;;;;;;13.70;84.72;100671.59;6040151;23;19999;-83
2021/06/03 06:22:41;;;;;;;6.28;4.47;;;;;;;13.58;84.52;100660.53;6015785;23;20015;-83
2021/06/03 06:25:07;;;;;;;6.68;5.10;;;;;;;13.67;84.40;100672.81;6014207;23;20011;-83
2021/06/03 06:27:33;;;;;;;7.18;5.47;;;;;;;13.73;84.59;100679.31;6036137;23;20095;-84
2021/06/03 06:29:58;;;;;;;6.82;4.93;;;;;;;13.78;84.58;100680.38;6035625;23;20027;-84
2021/06/03 06:32:24;;;;;;;5.40;4.32;;;;;;;13.79;84.12;100684.75;6014706;23;20062;-85
2021/06/03 06:34:49;;;;;;;8.65;5.57;;;;;;;13.82;84.03;100678.13;6014970;23;20011;-84
2021/06/03 06:37:15;;;;;;;7.30;5.88;;;;;;;13.85;84.17;100683.97;6037566;23;20010;-84
2021/06/03 06:39:40;;;;;;;8.63;7.28;;;;;;;13.91;83.70;100670.69;6035784;23;20081;-85
2021/06/03 06:42:06;;;;;;;12.02;9.45;;;;;;;14.01;83.80;100685.50;6013707;23;20013;-84
2021/06/03 06:44:32;;;;;;;6.88;5.80;;;;;;;14.13;83.25;100676.81;6035967;23;20334;-83
2021/06/03 06:46:57;;;;;;;7.53;5.43;;;;;;;14.25;83.17;100686.84;6013689;23;20017;-84
2021/06/03 06:49:22;;;;;;;5.30;4.80;;;;;;;14.47;82.31;100678.59;6037056;23;20007;-83
2021/06/03 06:51:48;;;;;;;7.43;6.55;;;;;;;14.61;81.88;100676.84;6036767;23;20037;-84
2021/06/03 06:54:13;;;;;;;5.97;5.20;;;;;;;14.59;81.92;100679.72;6013816;23;20098;-84
2021/06/03 06:56:39;;;;;;;7.05;4.95;;;;;;;14.54;82.18;100684.09;6013240;23;20002;-84
2021/06/03 06:59:05;;;;;;;5.50;4.60;;;;;;;14.40;81.95;100677.78;6012285;23;20006;-83
2021/06/03 07:01:31;;;;;;;5.35;4.82;;;;;;;14.27;82.27;100659.63;6014214;23;20011;-83
2021/06/03 07:03:56;;;;;;;6.63;4.82;;;;;;;14.34;82.51;100692.09;6014281;23;20033;-83
2021/06/03 07:06:22;;;;;;;5.38;4.30;;;;;;;14.29;82.47;100671.06;6014613;23;20030;-84
2021/06/03 07:08:47;;;;;;;6.10;4.55;;;;;;;14.40;81.95;100678.59;6012144;23;20038;-82
2021/06/03 07:11:13;;;;;;;5.05;4.28;;;;;;;14.42;81.66;100673.84;6013514;23;20438;-82
2021/06/03 07:13:38;;;;;;;6.95;4.53;;;;;;;14.56;81.73;100695.53;6013512;23;20010;-84
2021/06/03 07:16:04;;;;;;;4.97;4.20;;;;;;;14.58;81.58;100685.31;6013845;23;20441;-85
2021/06/03 07:18:29;;;;;;;5.55;4.40;;;;;;;14.51;81.28;100680.72;6036037;23;20041;-84
2021/06/03 07:20:55;;;;;;;5.05;4.53;;;;;;;14.63;80.81;100682.84;6013295;23;20003;-84
2021/06/03 07:23:21;;;;;;;5.20;4.53;;;;;;;14.71;80.54;100691.63;6037523;23;20007;-83
2021/06/03 07:25:47;;;;;;;5.50;4.28;;;;;;;14.77;80.56;100686.44;6012771;23;20002;-83
2021/06/03 07:28:12;;;;;;;5.50;4.05;;;;;;;14.76;79.98;100687.47;6035774;23;20086;-83
2021/06/03 07:30:38;;;;;;;4.80;4.30;;;;;;;14.71;80.04;100690.78;6012709;23;20026;-83
2021/06/03 07:33:04;;;;;;;6.00;4.10;;;;;;;14.67;80.16;100687.66;6013072;23;20013;-83
2021/06/03 07:35:32;;;;;;;5.10;4.10;;;;;;;14.77;80.31;100700.81;6037479;23;20445;-85
2021/06/03 07:37:58;;;;;;;5.90;5.03;;;;;;;14.69;80.26;100688.28;6012580;23;20018;-84
2021/06/03 07:40:31;;;;;;;4.57;3.88;;;;;;;14.73;80.31;100702.25;6012835;23;20011;-83
2021/06/03 07:42:57;;;;;;;;;;;;;;;14.69;79.76;100703.69;6014504;23;20015;-84
2021/06/03 07:45:25;;;;;;;4.18;3.53;;;;;;;14.70;79.43;100698.06;6013014;23;19925;-85
2021/06/03 07:47:52;;;;;;;4.60;3.80;;;;;;;14.78;79.28;100702.47;6012175;23;20011;-78
2021/06/03 07:50:17;;;;;;;4.40;3.50;;;;;;;14.80;79.28;100699.56;6063264;23;20035;-79
2021/06/03 07:52:43;;;;;;;7.20;3.53;;;;;;;14.84;79.05;100707.03;6037678;23;20003;-77
2021/06/03 07:55:12;;;;;;;5.10;4.10;;;;;;;14.87;78.87;100711.22;6062694;23;20058;-79
2021/06/03 07:57:38;;;;;;;4.32;3.28;;;;;;;14.87;78.80;100703.94;6036324;23;20002;-78
2021/06/03 08:00:09;;;;;;;5.45;3.65;;;;;;;14.99;77.83;100709.59;6038065;23;20011;-83
2021/06/03 08:02:38;;;;;;;4.78;3.30;;;;;;;15.14;77.44;100717.53;6036120;23;20475;-83
2021/06/03 08:05:04;;;;;;;3.70;3.28;;;;;;;15.20;77.42;100702.31;6036924;23;20007;-84
2021/06/03 08:07:30;;;;;;;4.50;3.45;;;;;;;15.30;77.10;100711.69;6013592;23;20049;-85
2021/06/03 08:09:56;;;;;;;5.78;3.55;;;;;;;15.67;75.92;100708.56;6013374;23;20441;-83
2021/06/03 08:12:21;;;;;;;4.28;3.53;;;;;;;16.12;74.71;100720.38;6011888;23;20015;-83
2021/06/03 08:14:47;;;;;;;3.33;2.70;;;;;;;16.38;72.78;100719.47;6015819;23;20089;-85
2021/06/03 08:17:12;;;;;;;4.15;2.85;;;;;;;16.71;71.28;100738.28;6015499;23;20086;-85
2021/06/03 08:19:38;;;;;;;2.65;2.28;;;;;;;16.59;70.66;100741.88;6014883;23;20007;-83
2021/06/03 08:22:04;;;;;;;3.72;2.20;;;;;;;16.29;71.17;100739.72;6040930;23;19999;-81
2021/06/03 08:24:29;;;;;;;2.78;2.28;;;;;;;15.98;71.98;100729.56;6015726;23;20011;-82
2021/06/03 08:26:55;;;;;;;2.83;2.53;;;;;;;15.92;72.05;100742.09;6038390;23;20003;-86
2021/06/03 08:29:21;;;;;;;3.00;2.40;;;;;;;15.71;71.13;100718.78;6017569;23;20089;-84
2021/06/03 08:31:48;;;;;;;2.90;2.25;;;;;;;15.86;71.00;100737.53;6015904;23;20006;-85
2021/06/03 08:34:14;;;;;;;4.32;2.30;;;;;;;15.74;71.04;100720.25;6013587;23;20038;-85
2021/06/03 08:36:39;;;;;;;6.13;2.40;;;;;;;15.70;71.41;100733.38;6013180;23;20010;-85
2021/06/03 08:39:06;;;;;;;3.08;2.30;;;;;;;15.98;70.90;100727.72;6013006;23;20007;-85
2021/06/03 08:41:35;;;;;;;3.47;2.13;;;;;;;16.24;70.08;100729.50;6036239;23;20086;-83
2021/06/03 08:44:05;;;;;;;2.67;2.30;;;;;;;16.25;69.31;100727.66;6063328;23;20003;-83
2021/06/03 08:46:31;;;;;;;4.32;2.38;;;;;;;16.22;68.61;100715.34;6013524;23;20014;-83
2021/06/03 08:48:56;;;;;;;4.53;2.10;;;;;;;16.59;67.99;100731.03;6011730;23;20010;-84
2021/06/03 08:51:22;;;;;;;3.60;1.80;;;;;;;16.69;66.89;100737.66;6037256;23;20432;-85
2021/06/03 08:53:49;;;;;;;4.20;2.30;;;;;;;16.91;66.55;100721.09;6037264;23;20045;-85
2021/06/03 08:56:17;;;;;;;2.63;1.95;;;;;;;16.98;66.26;100735.44;6013747;23;20018;-84
2021/06/03 08:58:45;;;;;;;3.95;2.22;;;;;;;16.81;66.19;100720.75;6013285;23;20038;-84
2021/06/03 09:01:12;;;;;;;3.05;2.10;;;;;;;16.58;67.33;100734.81;6013045;23;20011;-83
2021/06/03 09:03:38;;;;;;;2.72;2.10;;;;;;;16.48;67.31;100737.97;6014265;23;20022;-84
2021/06/03 09:06:04;;;;;;;3.03;2.13;;;;;;;16.35;67.62;100728.00;6040473;23;20171;-84
2021/06/03 09:08:36;;;;;;;3.05;2.45;;;;;;;16.04;68.31;100713.31;6018018;23;20007;-83
2021/06/03 09:11:14;;;;;;;3.95;2.10;;;;;;;16.19;67.83;100739.34;6017441;23;20010;-84
2021/06/03 09:13:47;;;;;;;3.70;2.33;;;;;;;16.58;66.29;100726.66;6041500;23;20365;-84
2021/06/03 09:16:20;;;;;;;3.30;2.33;;;;;;;16.98;65.25;100740.06;6016784;23;20007;-82
2021/06/03 09:18:49;;;;;;;3.35;2.00;;;;;;;16.60;65.82;100762.59;6016863;23;20078;-84
2021/06/03 09:21:36;;;;;;;3.42;1.65;;;;;;;16.14;66.92;100737.28;6017776;23;20019;-81
2021/06/03 09:24:10;;;;;;;3.38;2.20;;;;;;;16.27;67.11;100734.53;6017290;23;20352;-83
2021/06/03 09:26:47;;;;;;;2.78;2.10;;;;;;;16.72;66.48;100739.13;6017915;23;20010;-84
2021/06/03 09:29:15;;;;;;;2.65;1.65;;;;;;;17.19;64.08;100749.75;6017460;23;20011;-85
2021/06/03 09:31:41;;;;;;;3.15;1.50;;;;;;;17.35;63.40;100739.16;6018717;23;20010;-84
2021/06/03 09:34:10;;;;;;;2.20;1.80;;;;;;;17.58;62.30;100759.47;6041353;23;20014;-84
2021/06/03 09:36:51;;;;;;;3.22;1.50;;;;;;;17.43;60.40;100745.38;6018604;23;20037;-83
2021/06/03 09:39:23;;;;;;;2.85;1.30;;;;;;;17.07;62.38;100755.88;6038813;23;20014;-83
2021/06/03 09:41:56;;;;;;;1.95;1.48;;;;;;;17.20;62.92;100756.81;6016831;23;20055;-83
2021/06/03 09:44:24;;;;;;;1.77;1.27;;;;;;;17.25;61.96;100759.72;6042817;23;20109;-84
2021/06/03 09:47:02;;;;;;;1.77;1.13;;;;;;;16.82;62.70;100757.69;6016591;23;20007;-83
2021/06/03 09:49:49;;;;;;;2.83;1.70;;;;;;;16.72;63.07;100774.41;6042703;23;20006;-83
2021/06/03 09:52:17;;;;;;;2.30;1.17;;;;;;;17.20;61.69;100765.84;6033102;23;20011;-85
2021/06/03 09:54:51;;;;;;;1.25;1.02;;;;;;;17.00;62.19;100771.38;6040028;23;20011;-83
2021/06/03 09:57:17;;;;;;;3.15;1.58;;;;;;;16.96;62.96;100764.72;6043291;23;20002;-84
2021/06/03 09:59:50;;;;;;;3.42;1.30;;;;;;;16.79;63.53;100769.00;6044397;23;20022;-83
2021/06/03 10:02:18;;;;;;;;;;;;;;;16.96;62.72;100764.72;6017969;23;20015;-84
2021/06/03 10:04:44;;;;;;;4.35;1.33;;;;;;;17.56;62.61;100765.13;6044989;23;19910;-84
2021/06/03 10:07:24;;;;;;;0.90;0.80;;;;;;;17.87;60.88;100770.78;6018835;23;20007;-83
2021/06/03 10:10:19;;;;;;;2.30;1.05;;;;;;;17.42;60.85;100779.06;6041636;23;20009;-84
2021/06/03 10:12:47;;;;;;;1.70;0.75;;;;;;;16.96;60.88;100778.28;6017715;23;20002;-84
2021/06/03 10:15:34;;;;;;;2.80;1.10;;;;;;;16.91;61.06;100773.53;6037533;23;20007;-82
2021/06/03 10:18:19;;;;;;;1.65;0.73;;;;;;;17.18;59.99;100780.69;6015428;23;20011;-81
2021/06/03 10:20:48;;;;;;;1.33;0.77;;;;;;;17.38;59.88;100775.94;6018152;23;20026;-81
2021/06/03 10:23:19;;;;;;;1.15;0.90;;;;;;;17.22;59.58;100763.72;6017188;23;20002;-81
2021/06/03 10:25:46;;;;;;;1.73;1.10;;;;;;;17.10;60.10;100782.59;6023320;23;20421;-81
2021/06/03 10:28:14;;;;;;;4.00;1.35;;;;;;;17.21;60.08;100781.06;6019650;23;20011;-80
2021/06/03 10:30:41;;;;;;;2.45;0.90;;;;;;;17.11;61.11;100769.84;6039426;23;20010;-82
2021/06/03 10:33:11;;;;;;;1.35;0.80;;;;;;;17.03;61.45;100765.50;6062323;23;20425;-83
2021/06/03 10:35:38;;;;;;;0.70;0.60;;;;;;;17.14;60.28;100769.41;6039219;23;20081;-83
2021/06/03 10:38:05;;;;;;;1.00;0.70;;;;;;;17.06;60.26;100780.53;6027629;23;20003;-82
2021/06/03 10:40:34;;;;;;;0.93;0.82;;;;;;;16.82;59.94;100782.97;6015226;23;20508;-82
2021/06/03 10:43:00;;;;;;;1.92;0.82;;;;;;;16.63;60.03;100765.69;6068760;23;20030;-82
2021/06/03 10:45:29;;;;;;;1.42;0.70;;;;;;;16.74;60.38;100777.75;6043202;23;20041;-81
2021/06/03 10:47:56;;;;;;;0.93;0.85;;;;;;;16.57;59.74;100782.00;6017508;23;20011;-81
2021/06/03 10:50:31;;;;;;;3.22;1.70;;;;;;;16.61;59.41;100784.06;6043484;23;20007;-81
2021/06/03 10:53:05;;;;;;;1.02;0.90;;;;;;;16.86;59.32;100786.09;6020109;23;20062;-81
2021/06/03 10:55:33;;;;;;;0.93;0.80;;;;;;;17.10;58.25;100760.88;6045418;23;20011;-81
2021/06/03 10:58:00;;;;;;;0.70;0.60;;;;;;;17.38;57.78;100773.22;6045220;23;20002;-82
2021/06/03 11:00:42;;;;;;;0.65;0.60;;;;;;;17.67;56.92;100774.44;6043990;23;20022;-81
2021/06/03 11:03:10;;;;;;;1.05;0.82;;;;;;;17.57;56.87;100764.09;6018833;23;20003;-82
2021/06/03 11:05:41;;;;;;;0.60;0.60;;;;;;;17.38;57.22;100781.38;6020523;23;20062;-83
2021/06/03 11:08:26;;;;;;;1.60;0.85;;;;;;;17.18;59.20;100770.66;6021104;23;20003;-82
2021/06/03 11:10:52;;;;;;;1.25;0.90;;;;;;;17.00;59.16;100765.13;6068557;23;20006;-82
2021/06/03 11:13:20;;;;;;;1.02;0.80;;;;;;;16.85;60.57;100768.94;6047287;23;20035;-82
2021/06/03 11:16:09;;;;;;;2.80;1.50;;;;;;;16.84;61.50;100789.00;6023884;23;20014;-82
2021/06/03 11:18:45;;;;;;;1.25;0.80;;;;;;;16.77;60.61;100773.78;6021364;23;20089;-82
2021/06/03 11:21:42;;;;;;;0.85;0.80;;;;;;;16.61;61.10;100770.50;6042155;23;20013;-81
2021/06/03 11:24:11;;;;;;;2.60;1.20;;;;;;;16.92;60.81;100769.75;6046416;23;20010;-81
2021/06/03 11:26:36;;;;;;;1.60;1.30;;;;;;;17.05;61.23;100779.72;6043558;23;20032;-81
2021/06/03 11:29:21;;;;;;;1.95;0.70;;;;;;;16.91;60.17;100764.56;6042045;23;20349;-81